Current Weather

De Kalb Taylor Muni

De Kalb, Illinois (KDKB)

Report from: Sunday, February 5, 2023 11:35 PM CST
Current time: Monday, February 6, 2023 12:05 AM CST

Nearby weather
Weather history
Weather forecast

Temperature-4.3°C (24.3°F)
Wind chill-7.5°C (18.4°F)
Dew point-4.7°C (23.5°F)
Winds 4 kts (2.1 m/s, 4.6 mph) West-Northwest (300°)
Visibility10 mi. (16.1 km)
Clouds Sky clear
Altimeter30.16 in.Hg (1021 mB)
Relative humidity97 %
Density altitude-2,591 ft. (-790 m)
Remarks Fully automated report
Automated weather observing station with precipitation discriminator
Flight conditions Visual Meteorological Conditions
Raw dataKDKB 060535Z AUTO 30004KT 10SM CLR M04/M05 A3016 RMK AO2 T10431047
An error has occurred. This application may no longer respond until reloaded. Reload 🗙